Time,TemperatureF,DewpointF,PressureIn,WindDirection,WindDirectionDegrees,WindSpeedMPH,WindSpeedGustMPH,Humidity,HourlyPrecipIn,Conditions,Clouds,dailyrainin,SoftwareType,DateUTC
2014-01-31 00:03:00,52.5,52.2,30.06,NW,315,1.7,-999.0,99,-99.99,,,0.00,Acu-Link.com,2014-01-31 05:03:00,
2014-01-31 00:19:00,52.5,52.2,30.07,North,0,0.0,-999.0,99,-99.99,,,0.00,Acu-Link.com,2014-01-31 05:19:00,
2014-01-31 00:34:00,52.7,52.4,30.08,NW,315,1.7,-999.0,99,-99.99,,,0.00,Acu-Link.com,2014-01-31 05:34:00,
2014-01-31 00:49:00,52.7,52.4,30.08,NNE,22,0.0,-999.0,99,-99.99,,,0.02,Acu-Link.com,2014-01-31 05:49:00,
2014-01-31 01:05:00,52.7,52.4,30.06,NNW,337,1.7,-999.0,99,-99.99,,,0.07,Acu-Link.com,2014-01-31 06:05:00,
2014-01-31 01:20:00,52.7,52.4,30.06,ESE,112,0.0,-999.0,99,-99.99,,,0.09,Acu-Link.com,2014-01-31 06:20:00,
2014-01-31 01:35:00,52.7,52.4,30.06,WSW,247,0.0,-999.0,99,-99.99,,,0.10,Acu-Link.com,2014-01-31 06:35:00,
2014-01-31 01:50:00,52.9,52.6,30.04,South,180,0.0,-999.0,99,-99.99,,,0.10,Acu-Link.com,2014-01-31 06:50:00,
2014-01-31 02:06:00,53.1,52.8,30.04,NNW,337,2.2,-999.0,99,-99.99,,,0.10,Acu-Link.com,2014-01-31 07:06:00,
2014-01-31 02:21:00,53.1,52.8,30.04,NNW,337,0.0,-999.0,99,-99.99,,,0.10,Acu-Link.com,2014-01-31 07:21:00,
2014-01-31 02:36:00,53.2,52.9,30.03,NW,315,2.7,-999.0,99,-99.99,,,0.10,Acu-Link.com,2014-01-31 07:36:00,
2014-01-31 02:51:00,53.2,52.9,30.04,North,0,0.0,-999.0,99,-99.99,,,0.12,Acu-Link.com,2014-01-31 07:51:00,
2014-01-31 03:07:00,53.2,52.9,30.03,NNW,337,1.7,-999.0,99,-99.99,,,0.12,Acu-Link.com,2014-01-31 08:07:00,
2014-01-31 03:22:00,53.2,52.9,30.02,NNW,337,2.2,-999.0,99,-99.99,,,0.12,Acu-Link.com,2014-01-31 08:22:00,
2014-01-31 03:37:00,53.2,52.9,30.02,WNW,292,1.7,-999.0,99,-99.99,,,0.12,Acu-Link.com,2014-01-31 08:37:00,
2014-01-31 03:53:00,53.2,52.9,30.02,WNW,292,1.7,-999.0,99,-99.99,,,0.12,Acu-Link.com,2014-01-31 08:53:00,
2014-01-31 04:08:00,53.4,53.1,30.03,WNW,292,0.0,-999.0,99,-99.99,,,0.13,Acu-Link.com,2014-01-31 09:08:00,
2014-01-31 04:23:00,53.4,53.1,30.02,NW,315,0.0,-999.0,99,-99.99,,,0.13,Acu-Link.com,2014-01-31 09:23:00,
2014-01-31 04:38:00,53.6,53.3,30.03,North,0,0.0,-999.0,99,-99.99,,,0.16,Acu-Link.com,2014-01-31 09:38:00,
2014-01-31 04:53:00,53.6,53.3,30.03,North,0,0.0,-999.0,99,-99.99,,,0.17,Acu-Link.com,2014-01-31 09:53:00,
2014-01-31 05:09:00,53.6,53.3,30.03,NNW,337,0.0,-999.0,99,-99.99,,,0.18,Acu-Link.com,2014-01-31 10:09:00,
2014-01-31 05:24:00,53.6,53.3,30.03,NNW,337,0.0,-999.0,99,-99.99,,,0.22,Acu-Link.com,2014-01-31 10:24:00,
2014-01-31 05:39:00,53.8,53.5,30.03,NW,315,0.0,-999.0,99,-99.99,,,0.33,Acu-Link.com,2014-01-31 10:39:00,
2014-01-31 05:54:00,54.0,53.7,30.04,NNW,337,0.0,-999.0,99,-99.99,,,0.37,Acu-Link.com,2014-01-31 10:54:00,
2014-01-31 06:10:00,54.1,53.8,30.03,NNW,337,0.0,-999.0,99,-99.99,,,0.50,Acu-Link.com,2014-01-31 11:10:00,
2014-01-31 06:25:00,54.5,54.2,30.03,NW,315,0.0,-999.0,99,-99.99,,,0.56,Acu-Link.com,2014-01-31 11:25:00,
2014-01-31 06:40:00,54.9,54.6,30.03,ENE,67,0.0,-999.0,99,-99.99,,,0.72,Acu-Link.com,2014-01-31 11:40:00,
2014-01-31 06:55:00,55.2,54.9,30.04,NW,315,0.0,-999.0,99,-99.99,,,0.79,Acu-Link.com,2014-01-31 11:55:00,
2014-01-31 07:11:00,55.6,55.3,30.04,NNW,337,0.0,-999.0,99,-99.99,,,0.89,Acu-Link.com,2014-01-31 12:11:00,
2014-01-31 07:26:00,55.8,55.5,30.05,NW,315,0.0,-999.0,99,-99.99,,,0.94,Acu-Link.com,2014-01-31 12:26:00,
2014-01-31 07:41:00,55.8,55.5,30.05,NW,315,0.0,-999.0,99,-99.99,,,1.00,Acu-Link.com,2014-01-31 12:41:00,
2014-01-31 07:56:00,55.9,55.6,30.05,NW,315,0.0,-999.0,99,-99.99,,,1.05,Acu-Link.com,2014-01-31 12:56:00,
2014-01-31 08:12:00,56.1,55.8,30.05,NE,45,0.0,-999.0,99,-99.99,,,1.12,Acu-Link.com,2014-01-31 13:12:00,
2014-01-31 08:27:00,56.3,56.0,30.06,NE,45,0.0,-999.0,99,-99.99,,,1.28,Acu-Link.com,2014-01-31 13:27:00,
2014-01-31 08:42:00,56.5,56.2,30.07,NW,315,0.0,-999.0,99,-99.99,,,1.33,Acu-Link.com,2014-01-31 13:42:00,
2014-01-31 08:57:00,56.7,56.4,30.07,NNW,337,0.0,-999.0,99,-99.99,,,1.39,Acu-Link.com,2014-01-31 13:57:00,
2014-01-31 09:13:00,56.8,56.5,30.08,ENE,67,0.0,-999.0,99,-99.99,,,1.43,Acu-Link.com,2014-01-31 14:13:00,
2014-01-31 09:28:00,57.0,56.7,30.08,North,0,0.0,-999.0,99,-99.99,,,1.54,Acu-Link.com,2014-01-31 14:28:00,
2014-01-31 09:43:00,57.6,57.3,30.08,SW,225,0.0,-999.0,99,-99.99,,,1.56,Acu-Link.com,2014-01-31 14:43:00,
2014-01-31 09:58:00,57.9,57.6,30.08,NNE,22,0.0,-999.0,99,-99.99,,,1.56,Acu-Link.com,2014-01-31 14:58:00,
2014-01-31 10:14:00,58.3,58.0,30.08,NNE,22,0.0,-999.0,99,-99.99,,,1.56,Acu-Link.com,2014-01-31 15:14:00,
2014-01-31 10:29:00,58.6,58.3,30.07,WNW,292,0.0,-999.0,99,-99.99,,,1.62,Acu-Link.com,2014-01-31 15:29:00,
2014-01-31 10:44:00,59.2,58.9,30.07,WNW,292,0.0,-999.0,99,-99.99,,,1.62,Acu-Link.com,2014-01-31 15:44:00,
2014-01-31 10:59:00,60.1,59.8,30.07,WNW,292,0.0,-999.0,99,-99.99,,,1.63,Acu-Link.com,2014-01-31 15:59:00,
2014-01-31 11:15:00,61.7,61.4,30.07,WNW,292,0.0,-999.0,99,-99.99,,,1.63,Acu-Link.com,2014-01-31 16:15:00,
2014-01-31 11:30:00,62.4,62.1,30.06,WNW,292,0.0,-999.0,99,-99.99,,,1.63,Acu-Link.com,2014-01-31 16:30:00,
2014-01-31 11:45:00,63.0,62.7,30.05,WNW,292,1.7,-999.0,99,-99.99,,,1.63,Acu-Link.com,2014-01-31 16:45:00,
2014-01-31 12:00:00,64.0,63.7,30.05,WNW,292,0.0,-999.0,99,-99.99,,,1.63,Acu-Link.com,2014-01-31 17:00:00,
2014-01-31 12:15:00,64.4,64.1,30.05,WNW,292,0.0,-999.0,99,-99.99,,,1.63,Acu-Link.com,2014-01-31 17:15:00,
2014-01-31 12:31:00,64.9,64.6,30.04,WNW,292,0.0,-999.0,99,-99.99,,,1.63,Acu-Link.com,2014-01-31 17:31:00,
2014-01-31 12:46:00,65.8,65.2,30.03,WNW,292,0.0,-999.0,98,-99.99,,,1.63,Acu-Link.com,2014-01-31 17:46:00,
2014-01-31 13:01:00,66.4,65.2,30.02,WNW,292,0.0,-999.0,96,-99.99,,,1.63,Acu-Link.com,2014-01-31 18:01:00,
2014-01-31 13:16:00,68.4,66.3,30.01,WNW,292,0.0,-999.0,93,-99.99,,,1.63,Acu-Link.com,2014-01-31 18:16:00,
2014-01-31 13:32:00,68.5,66.7,30.00,WNW,292,0.0,-999.0,94,-99.99,,,1.63,Acu-Link.com,2014-01-31 18:32:00,
2014-01-31 13:47:00,69.3,67.5,30.00,WNW,292,0.0,-999.0,94,-99.99,,,1.63,Acu-Link.com,2014-01-31 18:47:00,
2014-01-31 14:02:00,70.3,67.5,29.99,WNW,292,0.0,-999.0,91,-99.99,,,1.63,Acu-Link.com,2014-01-31 19:02:00,
2014-01-31 14:18:00,70.2,67.1,29.98,WNW,292,0.0,-999.0,90,-99.99,,,1.63,Acu-Link.com,2014-01-31 19:18:00,
2014-01-31 14:33:00,72.7,68.9,29.98,WNW,292,0.0,-999.0,88,-99.99,,,1.63,Acu-Link.com,2014-01-31 19:33:00,
2014-01-31 14:48:00,71.8,69.0,29.99,WNW,292,0.0,-999.0,91,-99.99,,,1.63,Acu-Link.com,2014-01-31 19:48:00,
2014-01-31 15:03:00,72.3,68.9,29.98,WNW,292,0.0,-999.0,89,-99.99,,,1.63,Acu-Link.com,2014-01-31 20:03:00,
2014-01-31 15:19:00,71.4,68.6,29.98,WNW,292,0.0,-999.0,91,-99.99,,,1.63,Acu-Link.com,2014-01-31 20:19:00,
2014-01-31 15:34:00,72.1,68.7,29.98,WNW,292,0.0,-999.0,89,-99.99,,,1.63,Acu-Link.com,2014-01-31 20:34:00,
2014-01-31 15:49:00,72.1,68.7,29.98,WNW,292,0.0,-999.0,89,-99.99,,,1.63,Acu-Link.com,2014-01-31 20:49:00,
2014-01-31 16:05:00,71.8,68.7,29.99,WNW,292,0.0,-999.0,90,-99.99,,,1.63,Acu-Link.com,2014-01-31 21:05:00,
2014-01-31 16:20:00,72.0,68.6,29.98,WNW,292,0.0,-999.0,89,-99.99,,,1.63,Acu-Link.com,2014-01-31 21:20:00,
2014-01-31 16:35:00,72.1,68.7,29.98,WNW,292,0.0,-999.0,89,-99.99,,,1.63,Acu-Link.com,2014-01-31 21:35:00,
2014-01-31 16:50:00,71.6,68.5,29.98,NW,315,0.0,-999.0,90,-99.99,,,1.63,Acu-Link.com,2014-01-31 21:50:00,
2014-01-31 17:05:00,70.7,67.9,29.99,ESE,112,0.0,-999.0,91,-99.99,,,1.63,Acu-Link.com,2014-01-31 22:05:00,
2014-01-31 17:20:00,69.8,68.0,30.00,SSW,202,1.7,-999.0,94,-99.99,,,1.65,Acu-Link.com,2014-01-31 22:20:00,
2014-01-31 17:36:00,69.3,68.1,30.00,West,270,0.0,-999.0,96,-99.99,,,1.83,Acu-Link.com,2014-01-31 22:36:00,
2014-01-31 17:51:00,69.1,67.9,30.00,North,0,0.0,-999.0,96,-99.99,,,1.83,Acu-Link.com,2014-01-31 22:51:00,
2014-01-31 18:06:00,68.7,67.5,30.00,NW,315,0.0,-999.0,96,-99.99,,,1.83,Acu-Link.com,2014-01-31 23:06:00,
2014-01-31 18:21:00,68.5,67.3,30.00,NW,315,0.0,-999.0,96,-99.99,,,1.83,Acu-Link.com,2014-01-31 23:21:00,
2014-01-31 18:37:00,68.0,66.8,30.01,NW,315,0.0,-999.0,96,-99.99,,,1.83,Acu-Link.com,2014-01-31 23:37:00,
2014-01-31 18:52:00,67.8,66.6,30.01,NW,315,0.0,-999.0,96,-99.99,,,1.83,Acu-Link.com,2014-01-31 23:52:00,
2014-01-31 19:07:00,67.6,66.4,30.02,NW,315,0.0,-999.0,96,-99.99,,,1.83,Acu-Link.com,2014-02-01 00:07:00,
2014-01-31 19:22:00,67.5,66.6,30.02,NW,315,0.0,-999.0,97,-99.99,,,1.83,Acu-Link.com,2014-02-01 00:22:00,
2014-01-31 19:37:00,67.3,66.7,30.02,NNW,337,0.0,-999.0,98,-99.99,,,1.83,Acu-Link.com,2014-02-01 00:37:00,
2014-01-31 19:53:00,66.9,66.3,30.02,North,0,1.1,-999.0,98,-99.99,,,1.83,Acu-Link.com,2014-02-01 00:53:00,
2014-01-31 20:08:00,66.6,66.0,30.03,NW,315,0.0,-999.0,98,-99.99,,,1.83,Acu-Link.com,2014-02-01 01:08:00,
2014-01-31 20:23:00,66.2,65.6,30.03,NNW,337,2.2,-999.0,98,-99.99,,,1.83,Acu-Link.com,2014-02-01 01:23:00,
2014-01-31 20:38:00,66.0,65.4,30.04,NW,315,0.0,-999.0,98,-99.99,,,1.83,Acu-Link.com,2014-02-01 01:38:00,
2014-01-31 20:53:00,65.7,65.1,30.04,East,90,0.0,-999.0,98,-99.99,,,1.85,Acu-Link.com,2014-02-01 01:53:00,
2014-01-31 21:08:00,65.5,64.9,30.05,NNW,337,0.0,-999.0,98,-99.99,,,1.92,Acu-Link.com,2014-02-01 02:08:00,
2014-01-31 21:24:00,64.9,64.6,30.06,North,0,0.0,-999.0,99,-99.99,,,1.97,Acu-Link.com,2014-02-01 02:24:00,
2014-01-31 21:39:00,64.4,64.1,30.06,NW,315,0.0,-999.0,99,-99.99,,,1.98,Acu-Link.com,2014-02-01 02:39:00,
2014-01-31 21:54:00,64.2,63.9,30.06,NE,45,0.0,-999.0,99,-99.99,,,1.98,Acu-Link.com,2014-02-01 02:54:00,
2014-01-31 22:09:00,64.0,63.7,30.06,NW,315,0.0,-999.0,99,-99.99,,,1.98,Acu-Link.com,2014-02-01 03:09:00,
2014-01-31 22:25:00,64.0,63.7,30.06,NNW,337,0.0,-999.0,99,-99.99,,,1.98,Acu-Link.com,2014-02-01 03:25:00,
2014-01-31 22:40:00,63.9,63.6,30.06,ENE,67,0.0,-999.0,99,-99.99,,,1.99,Acu-Link.com,2014-02-01 03:40:00,
2014-01-31 22:55:00,63.9,63.6,30.05,WNW,292,0.0,-999.0,99,-99.99,,,2.00,Acu-Link.com,2014-02-01 03:55:00,
2014-01-31 23:10:00,63.7,63.4,30.05,WNW,292,0.0,-999.0,99,-99.99,,,2.00,Acu-Link.com,2014-02-01 04:10:00,
2014-01-31 23:26:00,63.7,63.4,30.05,ENE,67,0.0,-999.0,99,-99.99,,,2.00,Acu-Link.com,2014-02-01 04:26:00,
2014-01-31 23:41:00,63.7,63.4,30.04,NE,45,0.0,-999.0,99,-99.99,,,2.00,Acu-Link.com,2014-02-01 04:41:00,
2014-01-31 23:56:00,63.5,63.2,30.04,WNW,292,0.0,-999.0,99,-99.99,,,2.00,Acu-Link.com,2014-02-01 04:56:00,